North Little Rock, AR (72199)

1:31 PM CDT on August 24, 2016 (GMT -0500)
Park Hill | | Change Station

Elev 417 ft 34.78 °N, 92.27 °W | Updated 7 seconds ago

Scattered Clouds
Scattered Clouds
90.5 °F
Feels Like 101 °F
N
5.1
Wind Variable Wind from WSW
Gusts 7.4 mph

Today
High -- | Low -- °F
--% Chance of Precip.
Yesterday
High -- | Low -- °F
Precip. -- in
Pressure 30.14 in
Visibility 10.0 miles
Clouds Scattered Clouds 3500 ft
Heat Index 101 °F
Dew Point 75 °F
Humidity 61%
Rainfall 0.00 in
Snow Depth Not available.
6:36 AM 7:45 PM
Waning Gibbous, 54% visible
METAR KLIT 241753Z 23007KT 10SM SCT035 33/24 A3014 RMK AO2 SLP204 T03280239 10339 20250 58003
Pressure 30.14 in
Visibility 10.0 miles
Clouds Scattered Clouds 3500 ft
Heat Index 101 °F
Dew Point 75 °F
Humidity 61%
Rainfall 0.00 in
Snow Depth Not available.
6:36 AM 7:45 PM
Waning Gibbous, 54% visible
METAR KLIT 241753Z 23007KT 10SM SCT035 33/24 A3014 RMK AO2 SLP204 T03280239 10339 20250 58003

10-Day Weather Forecast

Almanac

Astronomy

Aug. 24, 2016 Rise Set
Actual Time
Civil Twilight
Nautical Twilight
Astronomical Twilight
Moon
Length of Visible Light
Length of Day
Tomorrow will be .
, % of the Moon is Illuminated

Today's Extremes

State Highs State Lows

Community

WunderPhotos

Upload Photos

1,934,664 photos uploaded!

WunderBlog® & News

Nearby

Air Quality

  Air Quality AQ Index Pollutant
Not available.

Snow Depth

Station Depth Elevation

Earthquake Activity

City Distance Mag. Time & Date
Minimum magnitude displayed is 2.5.

Coastal Water Temperatures

Place Temperature

Stations

Nearby Weather Stations

Station Location Temp. Windchill Dew Point Humidity Wind Precip. Elev Updated Type
                   

Watches & Warnings

There are currently no watches in effect.